Time;durP1;ratioP1;P1;durP2;ratioP2;P2;SDS_P1;SDS_P2;PMS_P1;PMS_P2;Temp;Humidity;BMP_temperature;BMP_pressure;BME280_temperature;BME280_humidity;BME280_pressure;Samples;Min_cycle;Max_cycle;Signal;HPM_P1;HPM_P2
2023/02/02 00:01:46;;;;;;;26.30;17.00;;;;;;;2.55;75.16;99831.78;1805850;77;21354;-57
2023/02/02 00:05:03;;;;;;;24.05;15.48;;;;;;;2.60;75.15;99838.15;1798597;78;21319;-57
2023/02/02 00:08:20;;;;;;;25.88;16.93;;;;;;;2.60;75.11;99836.28;1767628;78;21337;-57
2023/02/02 00:11:40;;;;;;;24.30;16.23;;;;;;;2.64;75.20;99835.52;1799270;77;21205;-58
2023/02/02 00:14:57;;;;;;;27.07;15.78;;;;;;;2.69;75.24;99833.25;1788530;78;21409;-57
2023/02/02 00:18:23;;;;;;;25.55;15.48;;;;;;;2.72;75.25;99832.97;1800392;77;21350;-58
2023/02/02 00:21:39;;;;;;;24.37;15.00;;;;;;;2.74;75.26;99824.23;1799890;77;21328;-57
2023/02/02 00:24:51;;;;;;;21.73;14.65;;;;;;;2.75;75.23;99821.39;1764781;77;21906;-57
2023/02/02 00:28:03;;;;;;;24.12;15.08;;;;;;;2.78;75.25;99827.86;1787019;78;21160;-57
2023/02/02 00:31:31;;;;;;;23.73;13.70;;;;;;;2.80;75.18;99820.48;1765128;78;21343;-58
2023/02/02 00:34:54;;;;;;;20.37;13.43;;;;;;;2.81;75.19;99822.66;1791705;77;21411;-58
2023/02/02 00:38:05;;;;;;;22.15;14.15;;;;;;;2.82;75.21;99818.98;1779859;79;21232;-58
2023/02/02 00:41:20;;;;;;;20.23;14.20;;;;;;;2.85;75.25;99820.05;1789140;76;21357;-57
2023/02/02 00:48:13;;;;;;;20.60;13.90;;;;;;;2.87;75.16;99818.90;1790252;78;21351;-57
2023/02/02 00:51:24;;;;;;;22.00;13.45;;;;;;;2.86;75.13;99813.16;1797500;77;21219;-58
2023/02/02 00:54:52;;;;;;;20.65;13.45;;;;;;;2.89;75.22;99823.67;1800743;77;21343;-56
2023/02/02 00:58:17;;;;;;;19.90;13.00;;;;;;;2.90;75.24;99813.20;1784946;77;21780;-58
2023/02/02 01:01:41;;;;;;;19.75;13.93;;;;;;;2.93;75.29;99815.63;1786355;78;21418;-58
2023/02/02 01:04:57;;;;;;;20.32;14.15;;;;;;;2.94;75.28;99811.08;1801946;77;21426;-58
2023/02/02 01:08:16;;;;;;;20.88;14.33;;;;;;;2.96;75.29;99826.19;1805237;79;21701;-57
2023/02/02 01:11:46;;;;;;;22.58;14.15;;;;;;;2.97;75.26;99821.13;1772345;77;21250;-58
2023/02/02 01:15:07;;;;;;;20.12;14.43;;;;;;;2.97;75.27;99813.50;1786261;79;21746;-60
2023/02/02 01:18:27;;;;;;;20.25;14.43;;;;;;;3.00;75.31;99814.56;1792650;77;21389;-60
2023/02/02 01:21:43;;;;;;;22.87;14.90;;;;;;;3.01;75.30;99810.37;1801397;77;21834;-59
2023/02/02 01:24:57;;;;;;;21.87;14.33;;;;;;;3.05;75.31;99818.56;1797856;77;21853;-59
2023/02/02 01:28:26;;;;;;;23.07;15.10;;;;;;;3.07;75.28;99819.77;1787737;77;21917;-59
2023/02/02 01:31:41;;;;;;;26.20;15.55;;;;;;;3.09;75.28;99816.44;1801158;77;21972;-59
2023/02/02 01:34:55;;;;;;;23.10;14.98;;;;;;;3.11;75.33;99824.41;1787718;77;21693;-60
2023/02/02 01:38:17;;;;;;;23.32;14.50;;;;;;;3.12;75.35;99816.64;1762033;78;21320;-60
2023/02/02 01:41:33;;;;;;;27.07;15.70;;;;;;;3.12;75.31;99816.64;1788261;78;21242;-60
2023/02/02 01:45:20;;;;;;;22.05;15.70;;;;;;;3.12;75.37;99818.85;1783421;78;21822;-60
2023/02/02 01:48:40;;;;;;;22.60;15.60;;;;;;;3.15;75.40;99821.75;1778436;78;21378;-58
2023/02/02 01:52:04;;;;;;;26.87;16.90;;;;;;;3.17;75.42;99819.77;1804403;79;21188;-59
2023/02/02 01:55:20;;;;;;;21.93;16.52;;;;;;;3.15;75.39;99816.34;1805273;77;21216;-58
2023/02/02 01:58:39;;;;;;;23.02;17.00;;;;;;;3.15;75.44;99819.92;1793077;78;21184;-59
2023/02/02 02:01:55;;;;;;;22.80;14.98;;;;;;;3.16;75.44;99821.61;1800570;78;21205;-59
2023/02/02 02:05:09;;;;;;;26.23;17.20;;;;;;;3.18;75.43;99817.41;1787651;78;21274;-58
2023/02/02 02:08:35;;;;;;;22.30;15.30;;;;;;;3.18;75.47;99820.11;1742295;78;21212;-59
2023/02/02 02:11:50;;;;;;;20.25;15.20;;;;;;;3.19;75.42;99823.20;1802440;77;21974;-58
2023/02/02 02:18:39;;;;;;;22.45;15.10;;;;;;;3.19;75.40;99821.33;1796286;77;21335;-59
2023/02/02 02:26:37;;;;;;;20.15;14.55;;;;;;;3.21;75.46;99822.04;1783508;78;21551;-60
2023/02/02 02:30:33;;;;;;;22.58;14.63;;;;;;;3.23;75.45;99821.89;1800668;77;21310;-59
2023/02/02 02:34:21;;;;;;;20.17;14.38;;;;;;;3.22;75.45;99829.67;1784171;78;21189;-59
2023/02/02 02:38:00;;;;;;;24.10;15.10;;;;;;;3.22;75.46;99831.84;1785424;78;21338;-61
2023/02/02 02:41:25;;;;;;;24.30;15.18;;;;;;;3.23;75.47;99839.48;1797574;78;21374;-59
2023/02/02 02:44:41;;;;;;;25.05;16.52;;;;;;;3.18;75.37;99837.20;1790960;77;21780;-60
2023/02/02 02:48:03;;;;;;;23.45;15.28;;;;;;;3.16;75.40;99835.13;1789316;79;22045;-59
2023/02/02 02:51:17;;;;;;;24.45;16.12;;;;;;;3.15;75.47;99838.84;1802763;77;21673;-60
2023/02/02 02:54:38;;;;;;;24.65;15.93;;;;;;;3.17;75.50;99838.70;1798906;78;21281;-60
2023/02/02 02:58:04;;;;;;;23.83;16.02;;;;;;;3.18;75.50;99839.91;1797572;77;21346;-60
2023/02/02 03:01:30;;;;;;;23.57;14.73;;;;;;;3.18;75.54;99840.39;1798847;78;21148;-60
2023/02/02 03:04:58;;;;;;;24.47;14.50;;;;;;;3.19;75.52;99836.20;1798927;77;21189;-59
2023/02/02 03:08:23;;;;;;;;;;;;;;;3.17;75.44;99840.05;1798264;77;21398;-61
2023/02/02 03:11:39;;;;;;;19.87;13.20;;;;;;;3.14;75.37;99834.41;1799208;78;20549;-59
2023/02/02 03:14:55;;;;;;;21.55;14.40;;;;;;;3.08;75.29;99840.39;1794968;77;21177;-59
2023/02/02 03:18:17;;;;;;;22.62;13.85;;;;;;;3.05;75.32;99835.27;1802206;77;21204;-60
2023/02/02 03:21:35;;;;;;;21.57;14.55;;;;;;;3.00;75.43;99833.00;1804013;78;21748;-56
2023/02/02 03:24:52;;;;;;;23.38;14.45;;;;;;;3.00;75.50;99837.05;1792080;77;21185;-56
2023/02/02 03:28:07;;;;;;;22.73;13.88;;;;;;;2.99;75.55;99830.44;1796818;76;21169;-57
2023/02/02 03:31:25;;;;;;;20.23;13.20;;;;;;;2.99;75.57;99839.90;1795052;78;21204;-57
2023/02/02 03:34:51;;;;;;;24.02;15.10;;;;;;;2.99;75.61;99846.66;1797388;78;21933;-58
2023/02/02 03:38:23;;;;;;;24.20;15.08;;;;;;;2.97;75.62;99851.34;1786140;77;21346;-57
2023/02/02 03:41:46;;;;;;;25.62;15.55;;;;;;;2.97;75.61;99860.80;1787515;77;21338;-57
2023/02/02 03:45:04;;;;;;;22.27;14.85;;;;;;;2.97;75.59;99862.16;1801502;77;21177;-57
2023/02/02 03:48:16;;;;;;;27.05;17.30;;;;;;;2.95;75.57;99854.19;1788214;78;21148;-61
2023/02/02 03:51:33;;;;;;;21.15;15.30;;;;;;;2.95;75.61;99864.14;1770918;79;21177;-59
2023/02/02 03:54:47;;;;;;;23.07;15.00;;;;;;;2.94;75.63;99865.14;1778208;77;21235;-59
2023/02/02 03:57:58;;;;;;;;;;;;;;;2.92;75.64;99868.48;1784052;78;21308;-60
2023/02/02 04:01:15;;;;;;;20.65;13.78;;;;;;;2.92;75.74;99864.42;1777333;78;20244;-58
2023/02/02 04:04:34;;;;;;;20.70;12.30;;;;;;;2.93;75.78;99861.58;1794331;78;21844;-56
2023/02/02 04:08:09;;;;;;;20.00;13.80;;;;;;;2.94;75.77;99866.50;1790897;79;21185;-56
2023/02/02 04:11:53;;;;;;;21.45;13.88;;;;;;;2.92;75.69;99872.05;1795256;78;21288;-57
2023/02/02 04:15:07;;;;;;;23.10;15.05;;;;;;;2.92;75.70;99871.18;1812653;78;21705;-56
2023/02/02 04:18:22;;;;;;;19.12;13.45;;;;;;;2.90;75.67;99871.32;1834486;77;21204;-61
2023/02/02 04:21:51;;;;;;;18.05;11.70;;;;;;;2.88;75.63;99878.73;1834344;78;21315;-56
2023/02/02 04:25:09;;;;;;;17.57;12.45;;;;;;;2.85;75.67;99882.21;1834145;77;21331;-55
2023/02/02 04:28:27;;;;;;;16.30;11.95;;;;;;;2.83;75.67;99889.59;1834217;78;21856;-62
2023/02/02 04:31:53;;;;;;;19.60;12.03;;;;;;;2.81;75.74;99891.57;1833184;78;21165;-59
2023/02/02 04:35:19;;;;;;;20.77;12.37;;;;;;;2.81;75.77;99885.68;1808697;78;21260;-60
2023/02/02 04:38:30;;;;;;;18.92;12.35;;;;;;;2.79;75.73;99894.94;1797327;78;21227;-61
2023/02/02 04:41:45;;;;;;;24.67;13.08;;;;;;;2.80;75.83;99896.15;1818730;77;21212;-60
2023/02/02 04:45:07;;;;;;;18.67;12.33;;;;;;;2.83;75.88;99900.41;1786520;78;21316;-57
2023/02/02 04:48:20;;;;;;;18.17;12.85;;;;;;;2.84;75.85;99893.51;1811061;78;21209;-57
2023/02/02 04:51:39;;;;;;;20.12;12.63;;;;;;;2.87;75.77;99899.16;1830381;78;21702;-56
2023/02/02 04:55:02;;;;;;;18.30;13.25;;;;;;;2.86;75.78;99899.64;1813249;77;21189;-56
2023/02/02 04:58:20;;;;;;;27.22;16.77;;;;;;;2.87;75.75;99907.26;1805745;77;21318;-56
2023/02/02 05:01:33;;;;;;;23.22;14.95;;;;;;;2.86;75.74;99909.58;1814614;77;21654;-56
2023/02/02 05:04:54;;;;;;;23.12;14.58;;;;;;;2.85;75.74;99910.59;1808415;78;21279;-57
2023/02/02 05:08:10;;;;;;;23.90;14.00;;;;;;;2.86;75.82;99912.28;1807379;77;21701;-55
2023/02/02 05:11:30;;;;;;;28.80;17.40;;;;;;;2.88;75.90;99903.55;1804835;78;21247;-56
2023/02/02 05:14:55;;;;;;;34.60;18.57;;;;;;;2.90;75.85;99915.09;1825082;77;21225;-56
2023/02/02 05:18:16;;;;;;;42.55;24.10;;;;;;;2.88;75.87;99916.58;1799263;77;21254;-56
2023/02/02 05:21:35;;;;;;;31.02;17.07;;;;;;;2.90;75.90;99927.25;1737943;79;21224;-56
2023/02/02 05:24:56;;;;;;;26.10;16.17;;;;;;;2.89;75.87;99925.52;1702934;81;21403;-56
2023/02/02 05:28:28;;;;;;;24.27;14.70;;;;;;;2.89;75.79;99924.17;1746454;81;21304;-56
2023/02/02 05:36:14;;;;;;;20.55;12.25;;;;;;;2.90;75.84;99928.60;1773039;77;21856;-55
2023/02/02 05:39:30;;;;;;;22.52;12.20;;;;;;;2.89;75.75;99926.88;1703690;80;21760;-59
2023/02/02 05:42:45;;;;;;;52.60;30.48;;;;;;;2.90;75.72;99928.60;1732761;81;21331;-56
2023/02/02 05:46:04;;;;;;;25.23;15.35;;;;;;;2.89;75.76;99939.91;1769017;79;21354;-55
2023/02/02 05:49:28;;;;;;;25.55;15.63;;;;;;;2.91;75.87;99947.38;1797289;78;21350;-57
2023/02/02 05:52:45;;;;;;;25.02;15.70;;;;;;;2.97;75.96;99950.88;1791389;78;21448;-56
2023/02/02 05:55:57;;;;;;;22.07;14.45;;;;;;;3.00;75.95;99959.19;1813449;78;21208;-57
2023/02/02 05:59:43;;;;;;;20.15;13.50;;;;;;;3.02;75.95;99963.48;1707806;82;21283;-56
2023/02/02 06:06:34;;;;;;;20.85;13.28;;;;;;;3.01;75.91;99969.87;1701864;83;21247;-56
2023/02/02 06:09:33;;;;;;;20.43;12.68;;;;;;;3.03;75.87;99968.38;1710698;80;21536;-56
2023/02/02 06:12:47;;;;;;;20.32;12.90;;;;;;;3.06;75.90;99961.34;1755764;81;21197;-56
2023/02/02 06:15:59;;;;;;;20.52;12.55;;;;;;;3.11;75.87;99963.13;1750756;80;21237;-56
2023/02/02 06:19:19;;;;;;;22.98;12.98;;;;;;;3.13;75.81;99958.45;1712328;79;21256;-56
2023/02/02 06:22:31;;;;;;;31.12;14.93;;;;;;;3.18;75.80;99968.36;1687334;84;21847;-60
2023/02/02 06:26:03;;;;;;;26.07;15.03;;;;;;;3.24;75.83;99965.58;1735179;81;21229;-61
2023/02/02 06:29:23;;;;;;;23.47;14.75;;;;;;;3.28;75.77;99965.67;1739597;81;21339;-60
2023/02/02 06:32:53;;;;;;;23.83;14.40;;;;;;;3.32;75.75;99973.36;1739093;81;21353;-60
2023/02/02 06:36:17;;;;;;;20.62;14.80;;;;;;;3.35;75.73;99981.19;1781191;79;21208;-60
2023/02/02 06:39:28;;;;;;;21.52;13.18;;;;;;;3.40;75.76;99985.69;1804835;77;21219;-57
2023/02/02 06:42:43;;;;;;;20.60;12.93;;;;;;;3.52;75.65;99976.95;1875405;76;22798;-55
2023/02/02 06:45:53;;;;;;;21.85;13.83;;;;;;;3.50;75.63;99982.99;1787435;78;21772;-56
2023/02/02 06:49:05;;;;;;;21.10;13.05;;;;;;;3.53;75.54;99982.22;1808836;78;21212;-56
2023/02/02 06:52:48;;;;;;;19.52;12.30;;;;;;;3.58;75.51;99977.24;1772540;80;21212;-55
2023/02/02 06:56:29;;;;;;;18.25;11.93;;;;;;;3.66;75.51;99992.77;1783418;79;21221;-56
2023/02/02 07:00:35;;;;;;;20.68;11.45;;;;;;;3.66;75.32;99986.86;1808534;77;21944;-55
2023/02/02 07:03:53;;;;;;;17.98;11.15;;;;;;;3.67;75.31;99992.63;1804954;79;21781;-55
2023/02/02 07:10:59;;;;;;;16.80;12.07;;;;;;;3.78;75.31;99997.03;1804824;79;21717;-56
2023/02/02 07:14:37;;;;;;;20.25;13.03;;;;;;;3.86;75.29;99991.27;1801466;79;21248;-56
2023/02/02 07:18:01;;;;;;;20.05;12.78;;;;;;;3.99;75.25;100000.45;1876874;76;22655;-55
2023/02/02 07:21:34;;;;;;;23.55;15.38;;;;;;;3.99;75.29;100001.31;1764549;81;21193;-55
2023/02/02 07:24:45;;;;;;;21.23;14.45;;;;;;;4.06;75.23;100012.44;1803657;79;21710;-55
2023/02/02 07:28:20;;;;;;;23.98;13.50;;;;;;;4.09;75.09;100014.33;1774509;79;21359;-55
2023/02/02 07:31:55;;;;;;;22.07;12.98;;;;;;;4.14;75.09;100011.19;1756263;79;21331;-56
2023/02/02 07:35:17;;;;;;;30.82;18.25;;;;;;;4.18;75.10;100010.78;1788685;79;21784;-57
2023/02/02 07:38:44;;;;;;;20.35;12.98;;;;;;;4.29;75.04;100015.17;1838903;76;22261;-57
2023/02/02 07:41:56;;;;;;;20.97;12.55;;;;;;;4.24;75.06;100012.03;1679916;85;21743;-57
2023/02/02 07:45:25;;;;;;;21.33;12.37;;;;;;;4.25;75.01;100012.41;1742210;82;21236;-57
2023/02/02 07:49:13;;;;;;;39.13;22.57;;;;;;;4.24;74.98;100022.88;1710065;82;22100;-57
2023/02/02 07:52:56;;;;;;;;;;;;;;;4.17;74.85;100018.53;1740882;80;21205;-57
2023/02/02 07:56:24;;;;;;;24.07;15.15;;;;;;;4.16;74.85;100022.73;1770350;80;20201;-57
2023/02/02 08:00:28;;;;;;;26.57;15.20;;;;;;;4.16;74.93;100027.66;1762290;80;21221;-57
2023/02/02 08:03:50;;;;;;;25.27;14.95;;;;;;;4.25;75.04;100030.02;1769866;81;21185;-57
2023/02/02 08:07:42;;;;;;;57.53;39.03;;;;;;;4.39;74.98;100029.56;1750122;81;21824;-56
2023/02/02 08:11:28;;;;;;;24.55;15.15;;;;;;;4.44;74.75;100037.59;1766978;81;21492;-56
2023/02/02 08:14:57;;;;;;;22.80;13.05;;;;;;;4.50;74.71;100047.02;1752939;81;21808;-57
2023/02/02 08:18:16;;;;;;;20.45;14.40;;;;;;;4.50;74.75;100041.59;1770502;81;21280;-57
2023/02/02 08:22:18;;;;;;;64.07;43.28;;;;;;;4.52;74.83;100040.44;1754287;77;21176;31
2023/02/02 08:25:35;;;;;;;40.83;25.52;;;;;;;4.52;74.79;100039.08;1716356;80;21274;-58
2023/02/02 08:29:03;;;;;;;27.80;15.58;;;;;;;4.58;74.77;100045.79;1679380;84;21441;-57
2023/02/02 08:32:38;;;;;;;26.60;14.60;;;;;;;4.65;74.74;100050.95;1665135;85;21215;-56
2023/02/02 08:40:45;;;;;;;20.52;12.98;;;;;;;4.82;74.68;100054.78;1662583;79;21177;-55
2023/02/02 08:56:03;;;;;;;20.32;12.73;;;;;;;4.87;74.56;100057.91;1738111;78;21276;-55
2023/02/02 08:59:26;;;;;;;23.70;13.28;;;;;;;4.94;74.64;100054.94;1684474;79;21349;-55
2023/02/02 09:02:45;;;;;;;37.75;22.17;;;;;;;4.99;74.57;100044.51;1690888;83;21581;-60
2023/02/02 09:06:33;;;;;;;21.40;13.50;;;;;;;5.03;74.52;100049.97;1703091;82;21590;-55
2023/02/02 09:10:34;;;;;;;24.82;13.08;;;;;;;5.04;74.45;100047.14;1706414;82;21295;-55
2023/02/02 09:24:30;;;;;;;18.17;12.47;;;;;;;5.29;74.29;100024.73;1804029;75;22831;-55
2023/02/02 09:28:05;;;;;;;20.68;12.10;;;;;;;5.32;74.36;100023.57;1693721;83;21228;-60
2023/02/02 09:31:43;;;;;;;20.90;11.07;;;;;;;5.39;74.23;100028.23;1765022;79;21224;-61
2023/02/02 09:35:24;;;;;;;20.37;11.20;;;;;;;5.46;74.19;100014.91;1708625;82;21242;-61
2023/02/02 09:39:19;;;;;;;18.87;11.22;;;;;;;5.53;74.11;100022.31;1724508;81;21643;-60
2023/02/02 09:43:13;;;;;;;19.50;11.40;;;;;;;5.59;74.00;100010.84;1876508;76;22238;-58
2023/02/02 09:46:44;;;;;;;18.85;11.08;;;;;;;5.59;74.03;100014.05;1821109;77;21201;-59
2023/02/02 09:50:12;;;;;;;19.75;11.10;;;;;;;5.63;73.85;100013.58;1814972;77;21201;-56
2023/02/02 09:54:05;;;;;;;21.02;9.63;;;;;;;5.61;73.83;100010.69;1815900;78;21339;-55
2023/02/02 09:57:33;;;;;;;19.85;11.35;;;;;;;5.71;73.94;100008.73;1754354;81;21365;-56
2023/02/02 10:01:07;;;;;;;20.70;11.03;;;;;;;5.71;73.60;100007.38;1815012;76;22274;-55
2023/02/02 10:04:47;;;;;;;16.42;9.65;;;;;;;5.64;73.69;100013.95;1770449;80;21201;-56
2023/02/02 10:09:12;;;;;;;17.55;11.65;;;;;;;5.66;73.79;100012.44;1657536;81;21268;-60
2023/02/02 10:12:56;;;;;;;22.73;12.00;;;;;;;5.68;73.90;100006.33;1711423;83;21328;-60
2023/02/02 10:16:54;;;;;;;19.20;10.98;;;;;;;5.69;73.87;100003.45;1663848;85;22101;-59
2023/02/02 10:21:17;;;;;;;20.08;12.05;;;;;;;5.68;73.84;99994.11;1663216;85;21453;-59
2023/02/02 10:25:05;;;;;;;19.05;10.72;;;;;;;5.74;73.88;99994.88;1675677;85;21247;-57
2023/02/02 10:28:34;;;;;;;21.55;12.35;;;;;;;5.80;73.85;99995.08;1678199;85;21563;-57
2023/02/02 10:32:13;;;;;;;17.50;10.08;;;;;;;5.91;73.86;99994.88;1665762;84;21787;-60
2023/02/02 10:36:03;;;;;;;22.17;12.95;;;;;;;6.01;73.83;99996.16;1656248;85;21235;-54
2023/02/02 10:40:08;;;;;;;24.07;13.05;;;;;;;6.04;73.69;99987.72;1658095;85;21299;-56
2023/02/02 10:43:58;;;;;;;21.85;11.97;;;;;;;6.03;73.68;99990.06;1655567;86;21212;-56
2023/02/02 10:51:06;;;;;;;18.62;10.85;;;;;;;5.98;73.56;99991.90;1668921;85;21661;-55
2023/02/02 10:54:26;;;;;;;18.95;11.53;;;;;;;5.93;73.49;99990.67;1667548;83;21244;-59
2023/02/02 10:58:01;;;;;;;19.45;11.88;;;;;;;5.89;73.46;99992.84;1672374;85;21250;-58
2023/02/02 11:08:55;;;;;;;21.48;12.78;;;;;;;6.01;73.75;99993.44;1670203;85;21283;-59
2023/02/02 11:12:40;;;;;;;19.70;13.08;;;;;;;6.08;73.85;99994.03;1652474;85;21246;-55
2023/02/02 11:16:23;;;;;;;22.75;13.65;;;;;;;6.12;73.78;99999.16;1704240;81;21606;-56
2023/02/02 11:30:54;;;;;;;21.68;13.38;;;;;;;5.85;73.85;100002.83;1836439;75;22297;-56
2023/02/02 11:34:24;;;;;;;23.65;15.03;;;;;;;5.79;73.93;100007.45;1794408;77;21168;-58
2023/02/02 11:48:33;;;;;;;21.90;14.55;;;;;;;5.81;74.23;100001.38;1818327;76;28617;-59
2023/02/02 11:51:49;;;;;;;21.68;13.38;;;;;;;5.83;74.08;100007.55;1748691;81;21763;-59
2023/02/02 11:55:15;;;;;;;27.60;14.18;;;;;;;5.82;74.01;100011.25;1750317;81;21204;-60
2023/02/02 11:58:59;;;;;;;23.38;13.40;;;;;;;5.79;74.01;100008.81;1747068;81;21181;-58
2023/02/02 12:03:14;;;;;;;23.45;13.45;;;;;;;5.77;74.09;100008.97;1747748;82;21367;-57
2023/02/02 12:06:34;;;;;;;19.45;12.07;;;;;;;5.75;74.13;100015.09;1746889;82;21273;-56
2023/02/02 12:13:59;;;;;;;22.55;13.35;;;;;;;5.78;74.20;100017.48;1853341;76;22242;-56
2023/02/02 12:17:44;;;;;;;23.90;12.50;;;;;;;5.70;74.18;100020.61;1794322;77;21244;-59
2023/02/02 12:21:09;;;;;;;23.57;13.03;;;;;;;5.70;74.20;100027.40;1730227;82;21268;-59
2023/02/02 12:24:41;;;;;;;21.90;12.05;;;;;;;5.64;73.93;100019.87;1762638;78;22282;-56
2023/02/02 12:28:26;;;;;;;21.25;14.18;;;;;;;5.50;73.53;100017.16;1765663;78;21285;-58
2023/02/02 12:31:50;;;;;;;21.73;12.47;;;;;;;5.31;73.41;100025.42;1716522;81;22058;-60
2023/02/02 12:43:57;;;;;;;28.40;15.63;;;;;;;5.10;73.77;100029.40;1734902;80;21178;-60
2023/02/02 12:47:55;;;;;;;20.20;13.32;;;;;;;4.99;73.80;100029.10;1691927;83;21290;-57
2023/02/02 12:51:58;;;;;;;22.85;13.70;;;;;;;5.05;74.13;100032.56;1701793;82;21249;-59
2023/02/02 12:55:41;;;;;;;23.45;13.55;;;;;;;5.12;74.22;100022.80;1685186;82;21802;-61
2023/02/02 12:59:42;;;;;;;21.48;12.78;;;;;;;5.10;74.14;100025.33;1703675;81;21657;-57
2023/02/02 13:03:28;;;;;;;22.13;12.78;;;;;;;5.06;74.00;100025.29;1659872;84;21238;-60
2023/02/02 13:07:23;;;;;;;24.92;14.05;;;;;;;4.97;74.00;100028.88;1638902;85;21714;-60
2023/02/02 13:11:32;;;;;;;24.02;15.53;;;;;;;4.94;74.17;100037.31;1720103;76;21763;-56
2023/02/02 13:22:05;;;;;;;22.27;13.05;;;;;;;5.06;74.48;100064.09;1705040;81;21813;-59
2023/02/02 13:25:35;;;;;;;24.65;13.83;;;;;;;5.08;74.55;100051.74;1760113;77;21240;-59
2023/02/02 13:29:42;;;;;;;32.03;19.67;;;;;;;5.06;74.52;100066.81;1752956;80;21176;-58
2023/02/02 13:33:43;;;;;;;28.27;16.75;;;;;;;5.12;74.69;100074.34;1797850;77;22285;-57
2023/02/02 13:49:09;;;;;;;18.45;11.95;;;;;;;5.16;74.72;100074.91;1698249;81;21244;-59
2023/02/02 13:56:37;;;;;;;20.35;12.45;;;;;;;5.12;74.52;100073.52;1721068;77;22093;-58
2023/02/02 14:00:29;;;;;;;24.63;13.80;;;;;;;5.05;74.37;100075.97;1720739;78;21302;-58
2023/02/02 14:04:29;;;;;;;22.40;13.68;;;;;;;4.94;74.19;100082.93;1735402;79;21400;-58
2023/02/02 14:08:45;;;;;;;28.77;15.30;;;;;;;4.83;74.20;100084.95;1708367;79;21223;-56
2023/02/02 14:12:28;;;;;;;24.18;15.03;;;;;;;4.78;74.27;100091.30;1651046;84;21318;-58
2023/02/02 14:15:34;;;;;;;24.27;13.88;;;;;;;4.69;74.25;100087.64;1685679;82;21276;-58
2023/02/02 14:19:13;;;;;;;25.72;14.98;;;;;;;4.67;74.28;100095.54;1685670;81;21411;-58
2023/02/02 14:55:09;;;;;;;29.37;17.42;;;;;;;4.06;74.56;100110.77;1870095;75;22353;-56
2023/02/02 14:59:01;;;;;;;34.08;18.25;;;;;;;4.03;74.49;100118.30;1852120;76;22226;-56
2023/02/02 15:02:54;;;;;;;27.50;16.87;;;;;;;3.92;74.46;100124.72;1745618;79;21212;-59
2023/02/02 15:06:46;;;;;;;31.85;18.70;;;;;;;3.88;74.46;100126.00;1762299;79;21477;-58
2023/02/02 15:10:26;;;;;;;33.98;20.10;;;;;;;3.83;74.40;100132.81;1771337;79;21742;-57
2023/02/02 15:13:52;;;;;;;35.20;19.50;;;;;;;3.78;74.31;100135.95;1759481;79;21243;-56
2023/02/02 15:17:23;;;;;;;37.30;19.82;;;;;;;3.81;74.39;100138.38;1846662;76;22219;-56
2023/02/02 15:20:56;;;;;;;35.23;20.82;;;;;;;3.73;74.40;100137.34;1809112;78;21578;-58
2023/02/02 15:24:35;;;;;;;29.57;16.60;;;;;;;3.71;74.45;100136.66;1795668;78;21769;-56
2023/02/02 15:28:26;;;;;;;24.75;15.60;;;;;;;3.75;74.61;100140.78;1799856;79;21394;-57
2023/02/02 15:32:04;;;;;;;33.10;18.00;;;;;;;3.75;74.64;100143.00;1749277;82;21234;-57
2023/02/02 15:35:52;;;;;;;40.35;22.90;;;;;;;3.78;74.70;100147.27;1751785;81;21228;-58
2023/02/02 15:49:56;;;;;;;18.52;11.43;;;;;;;3.83;74.70;100147.71;1808841;76;23160;-56
2023/02/02 16:03:55;;;;;;;23.27;11.83;;;;;;;3.85;75.05;100156.06;1785954;78;23151;-57
2023/02/02 16:07:18;;;;;;;27.15;13.25;;;;;;;3.89;75.11;100153.42;1845107;76;20175;-57
2023/02/02 16:11:07;;;;;;;26.77;14.87;;;;;;;3.85;75.16;100152.01;1708227;82;21216;-57
2023/02/02 16:24:58;;;;;;;21.10;12.18;;;;;;;3.79;74.98;100155.25;1848610;77;22843;-56
2023/02/02 16:31:27;;;;;;;27.17;16.95;;;;;;;3.75;75.07;100165.14;1738398;79;21756;-57
2023/02/02 16:34:51;;;;;;;27.10;16.93;;;;;;;3.77;75.12;100165.86;1719315;82;21240;-56
2023/02/02 16:38:05;;;;;;;26.20;15.32;;;;;;;3.76;75.07;100173.13;1710865;82;21232;-56
2023/02/02 16:41:40;;;;;;;28.00;15.58;;;;;;;3.78;75.16;100172.49;1689398;83;21290;-56
2023/02/02 16:45:21;;;;;;;26.85;16.40;;;;;;;3.78;75.03;100168.43;1703804;82;21290;-57
2023/02/02 16:48:45;;;;;;;23.07;14.68;;;;;;;3.77;75.03;100178.91;1687386;84;21297;-57
2023/02/02 16:52:25;;;;;;;25.77;14.58;;;;;;;3.77;75.04;100184.81;1686188;83;21307;-58
2023/02/02 16:55:50;;;;;;;25.17;14.30;;;;;;;3.72;74.90;100185.72;1671305;84;21256;-56
2023/02/02 16:59:36;;;;;;;24.27;13.72;;;;;;;3.66;74.85;100188.98;1688598;84;21267;-57
2023/02/02 17:03:21;;;;;;;23.55;13.13;;;;;;;3.57;74.85;100193.34;1679719;84;21689;-59
2023/02/02 17:06:48;;;;;;;27.17;14.40;;;;;;;3.49;74.85;100198.58;1707011;82;21240;-56
2023/02/02 17:10:48;;;;;;;27.30;15.50;;;;;;;3.42;74.94;100200.13;1702776;82;21828;-58
2023/02/02 17:14:09;;;;;;;24.30;13.53;;;;;;;3.36;75.04;100197.97;1662279;85;21251;-57
2023/02/02 17:17:38;;;;;;;23.75;13.85;;;;;;;3.32;75.07;100199.22;1629273;86;21509;-58
2023/02/02 17:24:07;;;;;;;21.55;13.08;;;;;;;3.27;75.20;100201.47;1666081;86;21201;-58
2023/02/02 17:28:02;;;;;;;21.07;12.30;;;;;;;3.32;75.35;100204.62;1666497;86;21280;-57
2023/02/02 17:31:44;;;;;;;27.82;14.87;;;;;;;3.36;75.44;100202.03;1670658;81;21785;-57
2023/02/02 17:35:33;;;;;;;24.60;13.00;;;;;;;3.44;75.58;100201.34;1646499;86;21244;-57
2023/02/02 17:39:08;;;;;;;21.93;13.13;;;;;;;3.49;75.71;100206.70;1661448;83;21257;-56
2023/02/02 17:42:49;;;;;;;18.77;12.82;;;;;;;3.56;75.74;100205.66;1638774;87;21241;-59
2023/02/02 17:46:06;;;;;;;30.02;15.03;;;;;;;3.63;75.58;100219.86;1824714;76;22330;-58
2023/02/02 17:49:23;;;;;;;26.07;16.02;;;;;;;3.57;75.54;100217.70;1774815;80;21347;-58
2023/02/02 17:52:40;;;;;;;28.80;16.50;;;;;;;3.61;75.53;100219.66;1773215;80;21704;-58
2023/02/02 17:56:04;;;;;;;26.65;14.53;;;;;;;3.61;75.42;100215.10;1774073;79;21284;-59
2023/02/02 17:59:39;;;;;;;25.37;13.58;;;;;;;3.64;75.49;100222.95;1782069;80;21213;-57
2023/02/02 18:02:54;;;;;;;30.00;15.20;;;;;;;3.67;75.53;100223.16;1761690;79;21711;-57
2023/02/02 18:06:00;;;;;;;26.93;16.30;;;;;;;3.70;75.57;100231.88;1798905;79;21833;-58
2023/02/02 18:09:25;;;;;;;30.52;17.30;;;;;;;3.77;75.61;100235.77;1799843;79;21260;-57
2023/02/02 18:12:29;;;;;;;25.35;14.85;;;;;;;3.81;75.60;100230.91;1798082;79;21228;-58
2023/02/02 18:15:41;;;;;;;23.95;13.35;;;;;;;3.84;75.53;100234.20;1758644;79;21232;-58
2023/02/02 18:19:03;;;;;;;28.10;17.75;;;;;;;3.87;75.46;100235.28;1797909;79;21228;-59
2023/02/02 18:22:18;;;;;;;27.65;16.35;;;;;;;3.88;75.40;100232.95;1755213;81;21273;-59
2023/02/02 18:25:38;;;;;;;26.10;14.83;;;;;;;3.90;75.39;100240.41;1754712;81;21233;-59
2023/02/02 18:29:25;;;;;;;23.50;14.20;;;;;;;3.93;75.45;100246.08;1758909;79;21277;-58
2023/02/02 18:33:08;;;;;;;22.07;12.73;;;;;;;3.94;75.39;100246.42;1773569;79;21280;-58
2023/02/02 18:36:42;;;;;;;22.30;13.03;;;;;;;3.93;75.45;100245.55;1758197;81;21275;-56
2023/02/02 18:40:27;;;;;;;27.87;15.28;;;;;;;3.96;75.45;100253.92;1753504;81;21377;-56
2023/02/02 18:43:46;;;;;;;32.23;17.57;;;;;;;3.98;75.52;100254.13;1772052;81;21709;-56
2023/02/02 18:47:21;;;;;;;34.27;18.37;;;;;;;4.01;75.55;100257.08;1735000;82;21220;-58
2023/02/02 18:50:44;;;;;;;37.23;19.55;;;;;;;4.02;75.53;100256.94;1737081;82;21390;-57
2023/02/02 18:54:10;;;;;;;37.63;20.85;;;;;;;4.02;75.47;100248.81;1724155;82;21714;-56
2023/02/02 18:57:35;;;;;;;37.28;19.57;;;;;;;4.07;75.39;100246.55;1876857;76;22207;-56
2023/02/02 19:00:58;;;;;;;39.45;22.02;;;;;;;4.01;75.35;100241.66;1766154;81;21209;-58
2023/02/02 19:04:35;;;;;;;41.10;23.25;;;;;;;3.99;75.28;100245.52;1804494;79;21271;-57
2023/02/02 19:08:01;;;;;;;64.90;37.30;;;;;;;3.97;75.23;100240.73;1804033;79;21196;-56
2023/02/02 19:11:53;;;;;;;53.08;31.40;;;;;;;3.93;75.23;100245.55;1746155;80;21296;-57
2023/02/02 19:15:10;;;;;;;56.53;30.95;;;;;;;3.90;75.22;100249.89;1716567;82;21773;-57
2023/02/02 19:18:42;;;;;;;53.92;29.25;;;;;;;3.89;75.23;100259.50;1704839;83;21213;-57